createdAt,value
2023-02-26T00:00:47.211Z,99669.44
2023-02-26T00:05:50.652Z,99669.19
2023-02-26T00:10:54.752Z,99680.84
2023-02-26T00:16:01.837Z,99688.16
2023-02-26T00:21:05.323Z,99685.59
2023-02-26T00:26:08.051Z,99698.22
2023-02-26T00:31:13.292Z,99709.88
2023-02-26T00:36:22.588Z,99711.69
2023-02-26T00:41:26.191Z,99708.16
2023-02-26T00:46:39.917Z,99711.84
2023-02-26T00:51:49.682Z,99716.47
2023-02-26T00:56:54.103Z,99717.59
2023-02-26T01:01:58.205Z,99714.03
2023-02-26T01:07:01.561Z,99717.59
2023-02-26T01:12:08.411Z,99725.91
2023-02-26T01:17:19.711Z,99725.31
2023-02-26T01:22:27.133Z,99726.03
2023-02-26T01:27:30.419Z,99741.94
2023-02-26T01:32:44.081Z,99745.09
2023-02-26T01:37:54.866Z,99739.84
2023-02-26T01:43:04.390Z,99742.31
2023-02-26T01:48:19.671Z,99738.34
2023-02-26T01:53:24.513Z,99750.72
2023-02-26T01:58:31.355Z,99757.19
2023-02-26T02:03:40.644Z,99760.28
2023-02-26T02:08:44.254Z,99779.22
2023-02-26T02:14:01.308Z,99784.72
2023-02-26T02:19:19.702Z,99776.88
2023-02-26T02:24:36.115Z,99792.28
2023-02-26T02:30:04.505Z,99793.50
2023-02-26T02:35:16.684Z,99799.00
2023-02-26T02:40:23.668Z,99804.47
2023-02-26T02:45:32.614Z,99811.91
2023-02-26T02:50:42.680Z,99810.34
2023-02-26T02:55:51.954Z,99820.34
2023-02-26T03:01:01.636Z,99826.94
2023-02-26T03:06:06.143Z,99828.03
2023-02-26T03:11:09.728Z,99833.66
2023-02-26T03:16:41.129Z,99845.72
2023-02-26T03:21:52.572Z,99848.50
2023-02-26T03:27:19.682Z,99860.50
2023-02-26T03:32:28.839Z,99865.09
2023-02-26T03:37:37.748Z,99878.69
2023-02-26T03:42:47.433Z,99887.09
2023-02-26T03:47:54.134Z,99899.81
2023-02-26T03:53:02.132Z,99906.38
2023-02-26T03:58:14.256Z,99913.91
2023-02-26T04:03:53.562Z,99929.63
2023-02-26T04:08:59.074Z,99929.97
2023-02-26T04:14:02.827Z,99939.53
2023-02-26T04:19:08.707Z,99951.47
2023-02-26T04:24:13.808Z,99960.06
2023-02-26T04:29:16.753Z,99959.00
2023-02-26T04:34:19.792Z,99968.78
2023-02-26T04:39:24.333Z,99978.56
2023-02-26T04:44:27.384Z,99980.28
2023-02-26T04:49:30.465Z,99987.50
2023-02-26T04:54:34.588Z,99987.38
2023-02-26T04:59:38.669Z,99996.53
2023-02-26T05:04:42.575Z,99999.78
2023-02-26T05:09:46.794Z,100009.44
2023-02-26T05:14:49.707Z,100012.91
2023-02-26T05:19:52.686Z,100022.56
2023-02-26T05:24:57.168Z,100027.75
2023-02-26T05:29:59.961Z,100036.56
2023-02-26T05:35:02.827Z,100045.28
2023-02-26T05:40:10.843Z,100056.91
2023-02-26T05:45:13.795Z,100067.66
2023-02-26T05:50:16.625Z,100080.25
2023-02-26T05:55:21.180Z,100092.81
2023-02-26T06:00:23.971Z,100112.19
2023-02-26T06:05:26.809Z,100122.34
2023-02-26T06:10:31.021Z,100122.66
2023-02-26T06:15:33.816Z,100130.81
2023-02-26T06:20:37.103Z,100137.38
2023-02-26T06:25:41.319Z,100144.69
2023-02-26T06:30:44.094Z,100153.59
2023-02-26T06:35:47.025Z,100159.97
2023-02-26T06:40:51.231Z,100171.78
2023-02-26T06:45:54.126Z,100185.34
2023-02-26T06:50:57.033Z,100192.34
2023-02-26T06:56:01.108Z,100199.66
2023-02-26T07:01:05.515Z,100208.66
2023-02-26T07:06:25.924Z,100216.75
2023-02-26T07:11:31.402Z,100221.38
2023-02-26T07:16:34.314Z,100236.75
2023-02-26T07:21:37.077Z,100243.09
2023-02-26T07:26:41.223Z,100245.81
2023-02-26T07:31:45.416Z,100255.66
2023-02-26T07:36:48.256Z,100262.88
2023-02-26T07:41:52.396Z,100270.28
2023-02-26T07:46:57.901Z,100277.59
2023-02-26T07:52:00.884Z,100285.88
2023-02-26T07:57:05.787Z,100287.03
2023-02-26T08:02:08.799Z,100305.81
2023-02-26T08:07:11.681Z,100332.44
2023-02-26T08:12:15.910Z,100325.28
2023-02-26T08:17:18.839Z,100320.44
2023-02-26T08:22:23.678Z,100330.25
2023-02-26T08:27:28.101Z,100338.59
2023-02-26T08:32:30.928Z,100338.88
2023-02-26T08:37:33.986Z,100339.06
2023-02-26T08:42:38.699Z,100352.81
2023-02-26T08:47:55.606Z,100353.06
2023-02-26T08:52:59.977Z,100364.72
2023-02-26T08:58:04.507Z,100370.38
2023-02-26T09:03:07.446Z,100375.25
2023-02-26T09:08:11.486Z,100383.66
2023-02-26T09:13:15.817Z,100390.47
2023-02-26T09:18:18.655Z,100406.22
2023-02-26T09:23:21.442Z,100409.47
2023-02-26T09:28:27.088Z,100417.25
2023-02-26T09:33:29.920Z,100422.44
2023-02-26T09:38:32.708Z,100431.94
2023-02-26T09:44:13.594Z,100440.59
2023-02-26T09:49:35.808Z,100442.09
2023-02-26T09:54:45.664Z,100442.75
2023-02-26T09:59:48.996Z,100464.97
2023-02-26T10:05:06.411Z,100464.59
2023-02-26T10:10:20.393Z,100463.97
2023-02-26T10:15:26.857Z,100458.16
2023-02-26T10:20:36.721Z,100461.22
2023-02-26T10:25:45.265Z,100470.44
2023-02-26T10:30:55.437Z,100479.94
2023-02-26T10:36:05.622Z,100487.72
2023-02-26T10:41:14.588Z,100494.41
2023-02-26T10:46:26.725Z,100487.84
2023-02-26T10:51:36.129Z,100485.66
2023-02-26T10:56:39.043Z,100502.19
2023-02-26T11:01:42.083Z,100502.88
2023-02-26T11:06:50.855Z,100510.94
2023-02-26T11:11:55.332Z,100515.25
2023-02-26T11:17:00.644Z,100508.03
2023-02-26T11:22:09.616Z,100511.19
2023-02-26T11:27:15.648Z,100508.50
2023-02-26T11:32:20.950Z,100514.97
2023-02-26T11:37:28.729Z,100521.91
2023-02-26T11:47:36.005Z,100520.91
2023-02-26T11:52:45.277Z,100527.59
2023-02-26T11:57:53.997Z,100532.88
2023-02-26T12:03:02.067Z,100536.44
2023-02-26T12:08:17.771Z,100536.44
2023-02-26T12:13:27.654Z,100540.53
2023-02-26T12:18:45.563Z,100541.88
2023-02-26T12:24:11.943Z,100547.25
2023-02-26T12:29:32.559Z,100539.56
2023-02-26T12:34:55.300Z,100551.72
2023-02-26T12:40:16.812Z,100541.31
2023-02-26T12:45:40.241Z,100549.28
2023-02-26T12:50:59.557Z,100548.78
2023-02-26T12:56:21.864Z,100554.66
2023-02-26T13:01:43.375Z,100560.78
2023-02-26T13:07:02.158Z,100557.69
2023-02-26T13:12:19.113Z,100562.09
2023-02-26T13:17:29.078Z,100564.91
2023-02-26T13:22:34.988Z,100575.50
2023-02-26T13:27:40.571Z,100574.22
2023-02-26T13:32:45.347Z,100565.06
2023-02-26T13:37:52.185Z,100563.03
2023-02-26T13:43:07.199Z,100568.13
2023-02-26T13:48:18.385Z,100580.81
2023-02-26T13:53:55.283Z,100573.13
2023-02-26T13:59:05.594Z,100571.41
2023-02-26T14:04:24.768Z,100572.06
2023-02-26T14:09:55.404Z,100581.00
2023-02-26T14:15:28.718Z,100584.78
2023-02-26T14:20:36.387Z,100579.28
2023-02-26T14:25:42.830Z,100589.69
2023-02-26T14:30:51.163Z,100597.31
2023-02-26T14:35:55.625Z,100595.81
2023-02-26T14:41:04.230Z,100607.69
2023-02-26T14:46:10.608Z,100600.00
2023-02-26T14:51:26.414Z,100601.75
2023-02-26T14:56:52.070Z,100617.16
2023-02-26T15:02:12.710Z,100620.84
2023-02-26T15:07:36.449Z,100645.13
2023-02-26T15:12:55.601Z,100624.63
2023-02-26T15:18:18.301Z,100628.94
2023-02-26T15:23:37.241Z,100633.66
2023-02-26T15:28:42.105Z,100638.19
2023-02-26T15:33:49.282Z,100645.53
2023-02-26T15:38:58.574Z,100642.84
2023-02-26T15:44:05.442Z,100651.22
2023-02-26T15:49:13.457Z,100639.59
2023-02-26T15:54:20.184Z,100643.81
2023-02-26T15:59:28.241Z,100646.91
2023-02-26T16:04:32.461Z,100653.19
2023-02-26T16:09:36.800Z,100651.78
2023-02-26T16:14:41.809Z,100657.31
2023-02-26T16:19:49.756Z,100658.00
2023-02-26T16:24:57.049Z,100667.13
2023-02-26T16:30:02.123Z,100670.69
2023-02-26T16:35:16.804Z,100681.50
2023-02-26T16:40:25.327Z,100678.38
2023-02-26T16:45:49.487Z,100692.84
2023-02-26T16:51:00.713Z,100703.75
2023-02-26T16:56:05.557Z,100711.84
2023-02-26T17:01:14.255Z,100709.25
2023-02-26T17:06:20.518Z,100723.16
2023-02-26T17:11:28.019Z,100729.59
2023-02-26T17:16:30.974Z,100736.06
2023-02-26T17:21:37.258Z,100746.94
2023-02-26T17:26:40.057Z,100751.75
2023-02-26T17:31:43.702Z,100760.38
2023-02-26T17:36:48.433Z,100757.56
2023-02-26T17:41:51.332Z,100770.59
2023-02-26T17:46:54.293Z,100771.09
2023-02-26T17:51:58.403Z,100784.81
2023-02-26T17:57:01.503Z,100785.78
2023-02-26T18:02:17.352Z,100792.91
2023-02-26T18:07:22.971Z,100796.31
2023-02-26T18:12:25.966Z,100805.75
2023-02-26T18:17:31.108Z,100812.75
2023-02-26T18:22:36.379Z,100825.28
2023-02-26T18:27:39.251Z,100815.78
2023-02-26T18:32:42.147Z,100821.22
2023-02-26T18:37:47.339Z,100831.81
2023-02-26T18:42:50.415Z,100839.91
2023-02-26T18:47:54.302Z,100842.13
2023-02-26T18:52:58.581Z,100848.84
2023-02-26T18:58:01.383Z,100855.91
2023-02-26T19:03:04.616Z,100863.78
2023-02-26T19:08:09.053Z,100875.63
2023-02-26T19:13:12.098Z,100876.91
2023-02-26T19:18:14.901Z,100876.78
2023-02-26T19:23:19.820Z,100881.91
2023-02-26T19:28:22.626Z,100885.56
2023-02-26T19:33:25.732Z,100887.28
2023-02-26T19:38:30.082Z,100890.00
2023-02-26T19:43:32.999Z,100893.66
2023-02-26T19:48:35.839Z,100900.78
2023-02-26T19:53:40.140Z,100916.38
2023-02-26T19:58:43.643Z,100929.09
2023-02-26T20:03:49.010Z,100931.91
2023-02-26T20:08:53.476Z,100942.75
2023-02-26T20:13:56.484Z,100944.22
2023-02-26T20:18:59.908Z,100955.22
2023-02-26T20:24:05.139Z,100950.84
2023-02-26T20:29:08.650Z,100956.94
2023-02-26T20:34:11.378Z,100959.34
2023-02-26T20:39:15.815Z,100965.59
2023-02-26T20:44:19.259Z,100972.84
2023-02-26T20:49:22.272Z,100981.09
2023-02-26T20:54:26.699Z,100977.25
2023-02-26T20:59:29.860Z,100977.94
2023-02-26T21:04:32.750Z,100986.97
2023-02-26T21:09:36.955Z,100995.00
2023-02-26T21:14:39.851Z,100993.06
2023-02-26T21:19:42.685Z,100995.88
2023-02-26T21:24:47.198Z,101004.13
2023-02-26T21:29:49.933Z,101010.19
2023-02-26T21:34:52.835Z,101021.44
2023-02-26T21:39:57.381Z,101021.75
2023-02-26T21:45:00.505Z,101017.91
2023-02-26T21:50:03.321Z,101020.69
2023-02-26T21:55:08.265Z,101019.13
2023-02-26T22:00:12.244Z,101024.53
2023-02-26T22:05:15.492Z,101021.25
2023-02-26T22:10:20.124Z,101035.03
2023-02-26T22:15:23.153Z,101027.81
2023-02-26T22:20:26.001Z,101022.22
2023-02-26T22:25:31.056Z,101044.00
2023-02-26T22:30:33.925Z,101039.63
2023-02-26T22:35:36.705Z,101041.56
2023-02-26T22:40:41.084Z,101041.78
2023-02-26T22:45:43.887Z,101051.84
2023-02-26T22:50:46.628Z,101049.75
2023-02-26T22:55:50.770Z,101054.28
2023-02-26T23:00:59.568Z,101049.56
2023-02-26T23:06:02.370Z,101056.78
2023-02-26T23:11:07.907Z,101057.75
2023-02-26T23:16:12.224Z,101067.81
2023-02-26T23:21:16.400Z,101062.81
2023-02-26T23:26:20.510Z,101063.16
2023-02-26T23:31:23.475Z,101068.81
2023-02-26T23:36:26.432Z,101063.97
2023-02-26T23:41:30.657Z,101074.25
2023-02-26T23:46:33.518Z,101077.28
2023-02-26T23:51:38.321Z,101073.03
2023-02-26T23:56:42.868Z,101074.25
